Time;durP1;ratioP1;P1;durP2;ratioP2;P2;SDS_P1;SDS_P2;PMS_P1;PMS_P2;Temp;Humidity;BMP_temperature;BMP_pressure;BME280_temperature;BME280_humidity;BME280_pressure;Samples;Min_cycle;Max_cycle;Signal;HPM_P1;HPM_P2
2022/08/03 00:01:42;;;;;;;7.10;2.15;;;18.70;99.90;;;;;;5032339;28;20046;-69
2022/08/03 00:04:09;;;;;;;12.68;3.17;;;18.80;99.90;;;;;;5016871;28;20049;-69
2022/08/03 00:06:34;;;;;;;8.27;2.13;;;18.80;99.90;;;;;;5016670;28;20042;-69
2022/08/03 00:09:00;;;;;;;9.05;1.85;;;18.70;99.90;;;;;;5016279;28;20455;-70
2022/08/03 00:11:26;;;;;;;9.38;2.60;;;18.70;99.90;;;;;;5016577;28;20054;-70
2022/08/03 00:13:52;;;;;;;6.57;1.70;;;18.70;99.90;;;;;;5016614;28;20470;-70
2022/08/03 00:16:17;;;;;;;9.10;2.30;;;18.70;99.90;;;;;;5018143;28;20056;-69
2022/08/03 00:18:43;;;;;;;5.75;1.90;;;18.70;99.90;;;;;;5035974;28;20049;-70
2022/08/03 00:21:09;;;;;;;10.10;2.22;;;18.70;99.90;;;;;;5036011;28;20103;-69
2022/08/03 00:23:35;;;;;;;5.22;2.00;;;18.70;99.90;;;;;;5035916;28;20041;-69
2022/08/03 00:26:00;;;;;;;7.55;2.33;;;18.70;99.90;;;;;;5035824;28;20068;-69
2022/08/03 00:28:26;;;;;;;2.65;1.38;;;18.70;99.90;;;;;;5036506;28;20026;-70
2022/08/03 00:30:52;;;;;;;9.85;1.88;;;18.60;99.90;;;;;;5034276;28;20045;-70
2022/08/03 00:33:18;;;;;;;7.13;2.47;;;18.60;99.90;;;;;;5015662;28;20381;-69
2022/08/03 00:35:44;;;;;;;5.78;1.77;;;18.60;99.90;;;;;;5015929;28;20405;-69
2022/08/03 00:38:09;;;;;;;5.65;2.05;;;18.60;99.90;;;;;;5015866;28;20054;-69
2022/08/03 00:40:35;;;;;;;4.32;1.65;;;18.60;99.90;;;;;;5015663;28;20077;-69
2022/08/03 00:43:03;;;;;;;5.03;1.90;;;18.50;99.90;;;;;;5015625;28;20041;-70
2022/08/03 00:45:32;;;;;;;3.90;1.67;;;18.50;99.90;;;;;;5015349;28;20065;-69
2022/08/03 00:47:58;;;;;;;5.93;1.60;;;18.50;99.90;;;;;;5035415;28;20049;-69
2022/08/03 00:50:27;;;;;;;7.18;1.70;;;18.50;99.90;;;;;;5035398;28;20034;-70
2022/08/03 00:52:54;;;;;;;4.50;1.80;;;18.50;99.90;;;;;;5035490;28;20037;-69
2022/08/03 00:55:20;;;;;;;4.38;1.70;;;18.40;99.90;;;;;;5035050;28;20128;-70
2022/08/03 00:57:46;;;;;;;8.85;1.67;;;18.40;99.90;;;;;;5035304;28;20414;-69
2022/08/03 01:00:18;;;;;;;7.45;1.42;;;18.40;99.90;;;;;;5035141;28;20375;-69
2022/08/03 01:02:44;;;;;;;10.45;1.85;;;18.40;99.90;;;;;;5015437;28;20052;-69
2022/08/03 01:05:10;;;;;;;4.00;1.25;;;18.30;99.90;;;;;;5015681;28;20348;-70
2022/08/03 01:08:06;;;;;;;5.75;1.95;;;18.40;99.90;;;;;;5015464;28;20056;-70
2022/08/03 01:10:37;;;;;;;7.05;2.22;;;18.30;99.90;;;;;;5015720;28;20085;-70
2022/08/03 01:13:19;;;;;;;2.92;1.50;;;18.30;99.90;;;;;;5015614;28;20049;-70
2022/08/03 01:16:29;;;;;;;6.55;1.50;;;18.40;99.90;;;;;;5015289;28;20469;-70
2022/08/03 01:19:25;;;;;;;4.55;1.30;;;18.20;99.90;;;;;;4942124;29;20047;-69
2022/08/03 01:22:12;;;;;;;5.50;1.90;;;18.20;99.90;;;;;;5034432;28;20133;-69
2022/08/03 01:25:04;;;;;;;4.10;1.52;;;18.20;99.90;;;;;;5035052;28;20053;-69
2022/08/03 01:28:09;;;;;;;4.45;1.80;;;18.20;99.90;;;;;;5033037;28;20057;-70
2022/08/03 01:30:36;;;;;;;8.55;1.45;;;18.20;99.90;;;;;;5034904;28;20041;-70
2022/08/03 01:33:06;;;;;;;4.45;2.03;;;18.20;99.90;;;;;;5034638;28;20045;-70
2022/08/03 01:35:45;;;;;;;5.20;1.60;;;18.10;99.90;;;;;;5034656;28;20041;-69
2022/08/03 01:38:19;;;;;;;3.72;1.27;;;18.10;99.90;;;;;;5034384;28;20527;-70
2022/08/03 01:40:46;;;;;;;5.78;1.83;;;18.10;99.90;;;;;;5033098;28;20124;-70
2022/08/03 01:43:15;;;;;;;5.95;1.23;;;18.10;99.90;;;;;;5034412;28;20079;-70
2022/08/03 01:45:43;;;;;;;3.17;1.20;;;18.10;99.90;;;;;;5034493;28;20132;-70
2022/08/03 01:48:11;;;;;;;2.92;1.33;;;18.10;99.90;;;;;;5034520;28;20033;-69
2022/08/03 01:50:38;;;;;;;11.35;2.03;;;18.00;99.90;;;;;;5034837;28;20048;-69
2022/08/03 01:53:06;;;;;;;5.82;1.88;;;18.00;99.90;;;;;;5034716;28;20154;-69
2022/08/03 01:55:35;;;;;;;3.22;1.48;;;18.00;99.90;;;;;;5034842;28;20042;-70
2022/08/03 01:58:02;;;;;;;4.80;1.38;;;17.90;99.90;;;;;;5019616;28;20045;-69
2022/08/03 02:00:29;;;;;;;5.65;1.45;;;18.00;99.90;;;;;;5018640;28;20490;-69
2022/08/03 02:02:55;;;;;;;4.47;1.33;;;17.90;99.90;;;;;;5018866;28;20367;-70
2022/08/03 02:05:21;;;;;;;4.97;1.40;;;17.90;99.90;;;;;;5018961;28;20462;-69
2022/08/03 02:07:48;;;;;;;2.28;1.13;;;17.90;99.90;;;;;;5018621;28;20068;-69
2022/08/03 02:10:15;;;;;;;4.35;1.40;;;17.90;99.90;;;;;;5018632;28;20153;-69
2022/08/03 02:12:44;;;;;;;8.18;1.50;;;18.00;99.90;;;;;;5035942;28;20069;-70
2022/08/03 02:15:11;;;;;;;7.93;1.42;;;18.00;99.90;;;;;;5038723;28;20041;-69
2022/08/03 02:17:37;;;;;;;5.80;2.00;;;17.90;99.90;;;;;;5038483;28;20075;-69
2022/08/03 02:20:04;;;;;;;6.38;1.80;;;17.90;99.90;;;;;;5038394;28;20056;-70
2022/08/03 02:22:31;;;;;;;3.40;1.48;;;17.90;99.90;;;;;;5038212;28;20053;-70
2022/08/03 02:24:57;;;;;;;6.90;1.08;;;17.90;99.90;;;;;;5038256;28;20053;-70
2022/08/03 02:27:27;;;;;;;5.13;1.00;;;17.90;99.90;;;;;;5020480;28;20373;-70
2022/08/03 02:30:00;;;;;;;8.00;1.55;;;17.90;99.90;;;;;;5018150;28;20096;-70
2022/08/03 02:32:33;;;;;;;6.43;1.55;;;17.90;99.90;;;;;;5018656;28;20399;-70
2022/08/03 02:35:01;;;;;;;2.60;1.20;;;17.80;99.90;;;;;;5018688;28;20042;-69
2022/08/03 02:37:31;;;;;;;3.88;1.10;;;17.80;99.90;;;;;;5017847;28;20387;-70
2022/08/03 02:40:03;;;;;;;8.80;1.77;;;17.80;99.90;;;;;;5017564;28;20054;-69
2022/08/03 02:42:31;;;;;;;9.10;1.98;;;17.80;99.90;;;;;;5017699;28;20049;-69
2022/08/03 02:45:00;;;;;;;9.82;2.08;;;17.80;99.90;;;;;;5017824;28;20050;-70
2022/08/03 02:47:28;;;;;;;6.22;1.50;;;17.80;99.90;;;;;;5017561;28;20451;-69
2022/08/03 02:49:57;;;;;;;4.00;1.35;;;17.60;99.90;;;;;;5018019;28;20046;-70
2022/08/03 02:52:26;;;;;;;4.10;1.55;;;17.70;99.90;;;;;;5018003;28;20049;-69
2022/08/03 02:54:56;;;;;;;3.90;1.35;;;17.70;99.90;;;;;;5018175;28;20120;-70
2022/08/03 02:57:23;;;;;;;9.95;1.83;;;17.70;99.90;;;;;;5017472;28;20056;-69
2022/08/03 02:59:52;;;;;;;6.50;1.83;;;17.70;99.90;;;;;;5017735;28;20050;-70
2022/08/03 03:02:18;;;;;;;9.73;1.70;;;17.70;99.90;;;;;;5017771;28;20077;-70
2022/08/03 03:04:44;;;;;;;7.85;1.42;;;17.70;99.90;;;;;;5017656;28;20111;-69
2022/08/03 03:07:13;;;;;;;6.18;1.50;;;17.70;99.90;;;;;;5016572;28;20061;-70
2022/08/03 03:09:40;;;;;;;3.47;1.40;;;17.70;99.90;;;;;;5017942;28;20041;-70
2022/08/03 03:12:08;;;;;;;4.15;1.35;;;17.70;99.90;;;;;;5037077;28;20517;-70
2022/08/03 03:14:36;;;;;;;3.70;1.55;;;17.70;99.90;;;;;;5037302;28;20056;-70
2022/08/03 03:17:02;;;;;;;8.52;1.25;;;17.70;99.90;;;;;;5037230;28;20120;-70
2022/08/03 03:19:31;;;;;;;4.18;1.30;;;17.70;99.90;;;;;;5037046;28;20056;-70
2022/08/03 03:21:59;;;;;;;6.78;1.75;;;17.70;99.90;;;;;;5037277;28;20123;-69
2022/08/03 03:24:26;;;;;;;5.95;1.75;;;17.70;99.90;;;;;;5034831;28;20045;-70
2022/08/03 03:26:52;;;;;;;12.55;1.95;;;17.60;99.90;;;;;;5017067;28;20374;-70
2022/08/03 03:29:18;;;;;;;5.97;2.17;;;17.60;99.90;;;;;;5017210;28;20042;-69
2022/08/03 03:31:44;;;;;;;10.80;2.00;;;17.60;99.90;;;;;;5016994;28;20045;-70
2022/08/03 03:34:10;;;;;;;5.30;1.40;;;17.60;99.90;;;;;;5016659;28;20042;-69
2022/08/03 03:36:36;;;;;;;5.35;1.55;;;17.60;99.90;;;;;;4999976;28;20045;-70
2022/08/03 03:39:02;;;;;;;8.40;2.10;;;17.60;99.90;;;;;;5017475;28;20065;-69
2022/08/03 03:41:28;;;;;;;6.38;1.50;;;17.60;99.90;;;;;;5036155;28;20053;-70
2022/08/03 03:43:53;;;;;;;6.75;2.20;;;17.60;99.90;;;;;;5019477;28;20124;-69
2022/08/03 03:46:19;;;;;;;4.47;1.48;;;17.50;99.90;;;;;;5036412;28;20122;-70
2022/08/03 03:48:45;;;;;;;5.13;1.77;;;17.60;99.90;;;;;;5036622;28;20045;-70
2022/08/03 03:51:10;;;;;;;6.82;2.03;;;17.60;99.90;;;;;;5018044;28;20455;-69
2022/08/03 03:53:36;;;;;;;6.40;2.00;;;17.60;99.90;;;;;;4999394;28;20046;-69
2022/08/03 03:56:03;;;;;;;5.25;2.10;;;17.60;99.90;;;;;;5018066;28;20373;-69
2022/08/03 03:58:29;;;;;;;6.35;2.08;;;17.60;99.90;;;;;;5022203;28;20112;-70
2022/08/03 04:00:55;;;;;;;10.70;2.33;;;17.60;99.90;;;;;;5025929;28;20034;-69
2022/08/03 04:03:21;;;;;;;6.53;1.85;;;17.60;99.90;;;;;;5016283;28;20096;-69
2022/08/03 04:11:26;;;;;;;7.47;2.13;;;17.60;99.90;;;;;;5036072;28;20060;-70
2022/08/03 04:13:55;;;;;;;8.57;2.05;;;17.60;99.90;;;;;;5035779;28;20080;-70
2022/08/03 04:16:26;;;;;;;10.15;2.35;;;17.70;99.90;;;;;;5035692;28;20132;-69
2022/08/03 04:18:57;;;;;;;6.65;2.35;;;17.70;99.90;;;;;;5035440;28;20450;-69
2022/08/03 04:21:24;;;;;;;5.57;1.75;;;17.70;99.90;;;;;;5035794;28;20139;-70
2022/08/03 04:23:53;;;;;;;6.80;2.35;;;17.70;99.90;;;;;;5034899;28;20046;-69
2022/08/03 04:26:21;;;;;;;10.70;2.38;;;17.60;99.90;;;;;;5035749;28;20065;-69
2022/08/03 04:28:50;;;;;;;6.13;2.08;;;17.70;99.90;;;;;;5035797;28;20063;-69
2022/08/03 04:31:17;;;;;;;5.85;1.85;;;17.80;99.90;;;;;;5035893;28;20052;-70
2022/08/03 04:33:43;;;;;;;4.47;1.40;;;17.70;99.90;;;;;;5035690;28;20362;-69
2022/08/03 04:36:14;;;;;;;5.93;1.90;;;17.80;99.90;;;;;;5035797;28;20128;-69
2022/08/03 04:39:00;;;;;;;6.22;1.50;;;17.80;99.90;;;;;;5029912;28;20077;-69
2022/08/03 04:41:27;;;;;;;8.23;2.00;;;17.70;99.90;;;;;;4987109;28;20517;-70
2022/08/03 04:43:57;;;;;;;6.32;1.80;;;17.80;99.90;;;;;;5035535;28;20041;-69
2022/08/03 04:46:27;;;;;;;6.45;2.15;;;17.90;99.90;;;;;;5035499;28;20041;-69
2022/08/03 04:48:53;;;;;;;6.70;1.85;;;17.90;99.90;;;;;;5036139;28;20037;-70
2022/08/03 04:51:19;;;;;;;12.07;2.47;;;17.90;99.90;;;;;;5035227;28;20041;-70
2022/08/03 04:53:45;;;;;;;5.80;1.85;;;18.00;99.90;;;;;;5035140;28;20053;-69
2022/08/03 04:56:11;;;;;;;5.88;1.50;;;18.00;99.90;;;;;;5032745;28;20183;-69
2022/08/03 04:58:38;;;;;;;7.72;2.17;;;18.10;99.90;;;;;;4997921;28;20050;-70
2022/08/03 05:01:03;;;;;;;4.57;1.52;;;18.20;99.90;;;;;;5015624;28;20125;-69
2022/08/03 05:03:30;;;;;;;5.50;1.65;;;18.20;99.90;;;;;;5015272;28;20096;-69
2022/08/03 05:05:56;;;;;;;8.52;2.20;;;18.30;99.90;;;;;;4998309;28;20065;-69
2022/08/03 05:08:21;;;;;;;8.80;2.55;;;18.40;99.90;;;;;;5015166;28;20121;-70
2022/08/03 05:10:47;;;;;;;4.22;1.77;;;18.40;99.90;;;;;;5016468;28;20045;-67
2022/08/03 05:13:13;;;;;;;7.53;2.25;;;18.50;99.90;;;;;;5015700;28;20091;-69
2022/08/03 05:15:39;;;;;;;4.75;1.67;;;18.70;99.90;;;;;;5015190;28;20081;-69
2022/08/03 05:18:05;;;;;;;6.57;2.17;;;18.60;99.90;;;;;;5015120;28;20123;-69
2022/08/03 05:20:31;;;;;;;6.95;1.95;;;18.70;99.90;;;;;;5015086;28;20050;-70
2022/08/03 05:22:57;;;;;;;5.15;1.73;;;18.70;99.90;;;;;;5015072;28;20050;-70
2022/08/03 05:25:22;;;;;;;11.48;2.58;;;18.80;99.90;;;;;;5014506;28;20482;-69
2022/08/03 05:27:48;;;;;;;7.78;1.77;;;19.00;99.90;;;;;;5027494;28;20041;-70
2022/08/03 05:30:14;;;;;;;8.23;1.83;;;19.10;99.90;;;;;;5033593;28;20060;-70
2022/08/03 05:32:40;;;;;;;4.93;1.85;;;19.20;99.90;;;;;;5034620;28;20412;-70
2022/08/03 05:35:06;;;;;;;6.45;2.13;;;19.40;99.90;;;;;;5034987;28;20046;-70
2022/08/03 05:37:32;;;;;;;7.88;2.08;;;20.00;99.90;;;;;;5034581;28;20052;-70
2022/08/03 05:39:57;;;;;;;6.15;1.77;;;20.90;99.90;;;;;;5035113;28;20054;-70
2022/08/03 05:42:23;;;;;;;9.68;2.17;;;21.60;99.90;;;;;;5034853;28;20041;-70
2022/08/03 05:44:48;;;;;;;7.40;1.92;;;22.20;99.90;;;;;;5020004;28;20045;-70
2022/08/03 05:47:14;;;;;;;6.78;2.40;;;22.70;99.90;;;;;;5014866;28;20073;-71
2022/08/03 05:49:40;;;;;;;6.07;1.73;;;23.20;99.90;;;;;;5015202;28;20108;-70
2022/08/03 05:52:05;;;;;;;10.85;2.15;;;24.00;99.90;;;;;;5015275;28;20121;-71
2022/08/03 05:54:31;;;;;;;7.63;1.83;;;24.80;99.90;;;;;;5014931;28;20413;-70
2022/08/03 05:56:56;;;;;;;7.13;1.75;;;25.40;99.90;;;;;;5015148;28;20085;-70
2022/08/03 05:59:22;;;;;;;11.82;2.10;;;25.60;99.90;;;;;;5027514;28;20042;-70
2022/08/03 06:01:47;;;;;;;4.45;1.33;;;26.10;99.90;;;;;;5034772;28;20196;-71
2022/08/03 06:04:13;;;;;;;5.32;1.67;;;26.60;99.90;;;;;;5026977;28;20044;-70
2022/08/03 06:06:40;;;;;;;7.28;2.05;;;27.00;99.90;;;;;;5014760;28;20038;-70
2022/08/03 06:09:05;;;;;;;5.43;1.20;;;27.20;99.90;;;;;;5015150;28;20054;-71
2022/08/03 06:11:31;;;;;;;4.65;1.90;;;27.30;99.90;;;;;;5014814;28;20423;-70
2022/08/03 06:13:56;;;;;;;12.77;2.53;;;27.00;99.90;;;;;;5025973;28;20394;-69
2022/08/03 06:16:22;;;;;;;8.20;1.65;;;26.90;99.90;;;;;;5034633;28;20335;-70
2022/08/03 06:18:47;;;;;;;10.27;2.30;;;26.70;99.90;;;;;;5034618;28;20136;-70
2022/08/03 06:21:14;;;;;;;6.05;1.20;;;26.50;99.90;;;;;;5034699;28;20056;-71
2022/08/03 06:23:42;;;;;;;8.40;2.17;;;26.50;99.90;;;;;;5034049;28;20462;-70
2022/08/03 06:26:07;;;;;;;10.30;1.40;;;26.40;99.90;;;;;;5034558;28;20053;-70
2022/08/03 06:28:33;;;;;;;10.50;1.70;;;26.50;99.90;;;;;;5023499;28;20105;-71
2022/08/03 06:30:59;;;;;;;8.68;1.70;;;26.70;99.90;;;;;;5014075;28;20050;-70
2022/08/03 06:33:25;;;;;;;7.35;1.98;;;27.00;99.90;;;;;;5014563;28;20034;-70
2022/08/03 06:35:51;;;;;;;10.80;2.28;;;27.40;99.90;;;;;;5014245;28;20057;-70
2022/08/03 06:38:16;;;;;;;8.85;1.60;;;27.80;99.90;;;;;;5014449;28;20049;-70
2022/08/03 06:40:42;;;;;;;11.50;2.25;;;28.30;99.90;;;;;;5014637;28;20108;-70
2022/08/03 06:43:07;;;;;;;9.93;1.60;;;28.50;99.90;;;;;;5025826;28;20087;-70
2022/08/03 06:45:34;;;;;;;9.82;2.03;;;28.70;99.90;;;;;;5037957;28;20460;-70
2022/08/03 06:48:08;;;;;;;4.00;1.45;;;29.30;99.90;;;;;;5037565;28;20076;-71
2022/08/03 06:50:35;;;;;;;13.93;2.20;;;29.90;99.90;;;;;;5037588;28;20041;-70
2022/08/03 06:53:01;;;;;;;9.30;1.90;;;30.50;99.90;;;;;;5037563;28;20100;-70
2022/08/03 06:55:27;;;;;;;7.78;1.65;;;30.60;99.90;;;;;;5037493;28;20038;-70
2022/08/03 06:57:53;;;;;;;13.05;2.22;;;30.90;99.00;;;;;;5028250;28;20426;-70
2022/08/03 07:00:19;;;;;;;14.70;2.25;;;31.00;99.50;;;;;;5017463;28;20377;-70
2022/08/03 07:02:45;;;;;;;7.70;2.28;;;31.30;99.00;;;;;;5017514;28;20116;-70
2022/08/03 07:05:11;;;;;;;10.93;2.35;;;31.20;98.50;;;;;;5017952;28;20124;-70
2022/08/03 07:07:37;;;;;;;7.82;2.05;;;30.60;98.00;;;;;;5017878;28;20145;-71
2022/08/03 07:10:04;;;;;;;6.45;1.45;;;30.70;98.70;;;;;;5017439;28;20511;-71
2022/08/03 07:12:31;;;;;;;6.05;1.60;;;30.80;98.00;;;;;;5017811;28;20053;-70
2022/08/03 07:14:58;;;;;;;11.93;2.28;;;31.10;98.10;;;;;;5028765;28;20041;-70
2022/08/03 07:17:23;;;;;;;8.52;2.45;;;30.80;97.70;;;;;;5037915;28;20361;-70
2022/08/03 07:19:49;;;;;;;13.10;1.88;;;31.00;98.10;;;;;;5037138;28;20042;-70
2022/08/03 07:22:15;;;;;;;6.60;1.42;;;31.20;98.20;;;;;;5037042;28;20041;-70
2022/08/03 07:24:40;;;;;;;5.35;1.48;;;31.50;98.00;;;;;;5037053;28;20462;-70
2022/08/03 07:27:08;;;;;;;9.43;1.98;;;31.70;97.30;;;;;;5037233;28;20461;-71
2022/08/03 07:29:34;;;;;;;10.23;1.80;;;31.90;97.90;;;;;;5037040;28;20421;-70
2022/08/03 07:32:00;;;;;;;6.53;1.85;;;32.30;96.90;;;;;;5028840;28;20133;-69
2022/08/03 07:34:25;;;;;;;6.55;1.40;;;32.50;97.10;;;;;;5017412;28;20157;-71
2022/08/03 07:36:51;;;;;;;12.25;2.28;;;32.70;96.90;;;;;;5016950;28;20052;-70
2022/08/03 07:39:17;;;;;;;11.75;2.13;;;32.70;96.50;;;;;;5016809;28;20105;-70
2022/08/03 07:41:42;;;;;;;9.43;1.50;;;33.00;96.60;;;;;;5017074;28;20054;-70
2022/08/03 07:44:08;;;;;;;9.90;1.75;;;33.30;96.40;;;;;;5016981;28;20077;-70
2022/08/03 07:46:33;;;;;;;8.30;1.98;;;33.40;95.50;;;;;;5022440;28;20041;-70
2022/08/03 07:48:59;;;;;;;8.15;1.80;;;33.50;95.20;;;;;;5026570;28;20041;-70
2022/08/03 07:51:25;;;;;;;9.38;1.73;;;33.20;95.90;;;;;;4999542;28;20473;-70
2022/08/03 07:53:50;;;;;;;10.13;1.55;;;33.50;95.90;;;;;;5015999;28;20368;-71
2022/08/03 07:56:16;;;;;;;5.65;1.65;;;33.60;95.20;;;;;;5016246;28;20278;-70
2022/08/03 07:58:41;;;;;;;10.10;1.52;;;33.70;95.00;;;;;;5031788;28;20053;-70
2022/08/03 08:01:07;;;;;;;5.45;1.50;;;33.70;95.40;;;;;;5036368;28;20500;-70
2022/08/03 08:03:33;;;;;;;6.68;1.30;;;33.90;95.40;;;;;;5036248;28;20473;-71
2022/08/03 08:05:58;;;;;;;13.35;1.77;;;33.90;94.40;;;;;;5036530;28;20141;-70
2022/08/03 08:08:24;;;;;;;10.05;1.83;;;33.90;94.80;;;;;;5036223;28;20046;-70
2022/08/03 08:10:49;;;;;;;11.85;2.33;;;33.80;94.70;;;;;;5036297;28;20049;-71
2022/08/03 08:13:15;;;;;;;8.40;1.70;;;33.80;94.90;;;;;;5021558;28;20038;-70
2022/08/03 08:15:41;;;;;;;9.07;1.83;;;33.50;94.70;;;;;;5015989;28;20050;-71
2022/08/03 08:18:06;;;;;;;8.30;1.70;;;33.60;94.80;;;;;;5015970;28;20050;-70
2022/08/03 08:20:34;;;;;;;7.65;1.55;;;33.70;95.00;;;;;;5016231;28;20037;-70
2022/08/03 08:23:01;;;;;;;7.18;1.38;;;33.80;94.70;;;;;;5016514;28;20057;-70
2022/08/03 08:25:28;;;;;;;6.38;1.77;;;34.10;94.40;;;;;;5016523;28;20057;-71
2022/08/03 08:27:54;;;;;;;7.70;1.50;;;33.90;94.70;;;;;;5029302;28;20037;-70
2022/08/03 08:30:21;;;;;;;7.05;1.48;;;34.10;94.20;;;;;;5035816;28;20048;-70
2022/08/03 08:32:48;;;;;;;5.18;1.60;;;33.90;94.80;;;;;;5035713;28;20146;-70
2022/08/03 08:35:14;;;;;;;10.43;2.15;;;33.90;94.40;;;;;;5035651;28;20049;-70
2022/08/03 08:37:40;;;;;;;10.52;1.70;;;33.90;94.50;;;;;;5035803;28;20520;-70
2022/08/03 08:40:07;;;;;;;6.95;1.48;;;33.80;94.60;;;;;;5035955;28;20359;-70
2022/08/03 08:42:33;;;;;;;11.88;1.60;;;34.00;94.50;;;;;;5022707;28;20037;-70
2022/08/03 08:45:04;;;;;;;9.50;1.80;;;33.90;94.50;;;;;;5016581;28;20431;-71
2022/08/03 08:47:30;;;;;;;9.23;1.58;;;33.70;94.30;;;;;;5015657;28;20041;-70
2022/08/03 08:49:57;;;;;;;6.47;1.92;;;33.50;94.60;;;;;;5015808;28;20081;-71
2022/08/03 08:52:25;;;;;;;10.75;1.92;;;33.50;94.60;;;;;;5015720;28;20046;-70
2022/08/03 08:54:55;;;;;;;4.20;1.02;;;33.60;94.50;;;;;;5015814;28;20053;-71
2022/08/03 08:57:24;;;;;;;7.45;1.60;;;33.40;94.80;;;;;;5028198;28;20056;-70
2022/08/03 08:59:51;;;;;;;12.45;2.30;;;33.40;94.80;;;;;;5035204;28;20041;-70
2022/08/03 09:02:16;;;;;;;7.00;2.22;;;33.50;94.40;;;;;;5035323;28;20068;-70
2022/08/03 09:04:44;;;;;;;8.65;1.65;;;33.50;94.70;;;;;;5035704;28;20339;-70
2022/08/03 09:07:09;;;;;;;7.72;1.67;;;33.50;94.60;;;;;;5035448;28;20045;-70
2022/08/03 09:09:35;;;;;;;9.38;2.08;;;33.30;94.20;;;;;;5035410;28;20041;-71
2022/08/03 09:12:01;;;;;;;8.00;1.92;;;33.30;94.80;;;;;;5022544;28;20045;-70
2022/08/03 09:14:28;;;;;;;5.60;1.50;;;33.10;95.00;;;;;;5015291;28;20053;-70
2022/08/03 09:17:02;;;;;;;7.80;1.27;;;32.90;95.00;;;;;;5015632;28;20112;-70
2022/08/03 09:19:29;;;;;;;8.25;2.30;;;32.70;95.20;;;;;;5015282;28;20069;-70
2022/08/03 09:22:11;;;;;;;4.35;1.55;;;32.50;95.40;;;;;;5015185;28;20443;-70
2022/08/03 09:24:52;;;;;;;5.07;1.20;;;32.20;95.70;;;;;;5015488;28;20072;-70
2022/08/03 09:27:18;;;;;;;6.72;1.70;;;32.00;95.70;;;;;;5031343;28;20053;-69
2022/08/03 09:29:47;;;;;;;10.00;1.50;;;31.30;95.70;;;;;;5034812;28;20353;-68
2022/08/03 09:32:13;;;;;;;8.52;1.85;;;31.00;96.30;;;;;;5035137;28;20045;-69
2022/08/03 09:34:38;;;;;;;6.13;1.77;;;30.70;96.30;;;;;;5034984;28;20484;-68
2022/08/03 09:37:16;;;;;;;6.63;1.33;;;30.50;96.70;;;;;;5034649;28;20462;-69
2022/08/03 09:39:41;;;;;;;8.23;1.42;;;30.20;97.00;;;;;;5035033;28;20053;-69
2022/08/03 09:42:14;;;;;;;12.32;1.80;;;30.10;97.10;;;;;;5017264;28;20069;-69
2022/08/03 09:44:41;;;;;;;;;;;30.20;97.20;;;;;;5015622;28;20362;-69
2022/08/03 09:47:08;;;;;;;10.18;1.77;;;30.40;97.20;;;;;;5015073;28;20036;-69
2022/08/03 09:49:34;;;;;;;8.25;2.00;;;30.60;97.00;;;;;;5014759;28;20452;-69
2022/08/03 09:52:10;;;;;;;6.47;1.70;;;30.70;96.80;;;;;;5015025;28;20065;-68
2022/08/03 09:54:36;;;;;;;4.63;1.73;;;30.60;96.80;;;;;;5015433;28;20100;-69
2022/08/03 09:57:01;;;;;;;7.57;1.40;;;30.60;96.80;;;;;;5033324;28;20049;-69
2022/08/03 09:59:29;;;;;;;5.72;2.08;;;30.60;97.10;;;;;;5034800;28;20045;-69
2022/08/03 10:01:56;;;;;;;4.85;1.25;;;30.40;97.10;;;;;;5034487;28;20037;-70
2022/08/03 10:04:22;;;;;;;9.10;1.95;;;30.30;97.20;;;;;;5034508;28;20037;-69
2022/08/03 10:07:03;;;;;;;6.78;1.50;;;30.10;97.20;;;;;;5034640;28;20045;-70
2022/08/03 10:09:29;;;;;;;5.10;1.63;;;30.00;97.40;;;;;;5037058;28;20056;-72
2022/08/03 10:11:55;;;;;;;8.27;1.75;;;30.00;97.30;;;;;;5015032;28;20050;-71
2022/08/03 10:14:22;;;;;;;7.95;1.40;;;30.00;97.30;;;;;;5014863;28;20100;-71
2022/08/03 10:16:48;;;;;;;10.30;1.42;;;30.00;97.40;;;;;;5015288;28;20152;-71
2022/08/03 10:19:15;;;;;;;5.45;1.50;;;30.10;97.70;;;;;;5018658;28;20092;-71
2022/08/03 10:22:13;;;;;;;4.30;1.33;;;30.10;97.50;;;;;;5018862;28;20105;-71
2022/08/03 10:24:53;;;;;;;7.55;2.15;;;30.20;97.30;;;;;;5016415;28;20116;-70
2022/08/03 10:27:20;;;;;;;10.68;2.13;;;29.90;97.30;;;;;;5037990;28;20056;-71
2022/08/03 10:29:51;;;;;;;5.80;1.38;;;30.00;97.70;;;;;;5038403;28;20089;-71
2022/08/03 10:32:48;;;;;;;7.85;1.50;;;30.10;97.90;;;;;;5038689;28;20394;-70
2022/08/03 10:35:16;;;;;;;9.85;1.73;;;30.20;97.50;;;;;;5037219;28;20123;-68
2022/08/03 10:38:11;;;;;;;8.80;1.88;;;30.30;97.30;;;;;;5037945;28;20060;-69
2022/08/03 10:40:37;;;;;;;7.43;1.50;;;30.30;97.80;;;;;;5024396;28;20062;-69
2022/08/03 10:43:12;;;;;;;8.02;1.30;;;30.10;97.40;;;;;;5018191;28;20049;-69
2022/08/03 10:45:42;;;;;;;8.30;1.27;;;30.20;97.50;;;;;;5018131;28;20411;-69
2022/08/03 10:48:08;;;;;;;7.75;1.88;;;30.00;97.70;;;;;;5017813;28;20041;-70
2022/08/03 10:50:34;;;;;;;5.65;1.27;;;29.90;97.90;;;;;;5026211;28;20049;-69
2022/08/03 10:53:01;;;;;;;11.65;2.35;;;29.90;97.70;;;;;;5037202;28;20427;-70
2022/08/03 10:58:39;;;;;;;6.00;2.10;;;29.70;97.60;;;;;;5037567;28;20061;-71
2022/08/03 11:01:10;;;;;;;10.80;2.20;;;29.60;98.20;;;;;;5035703;28;20450;-72
2022/08/03 11:03:51;;;;;;;9.65;2.17;;;29.60;98.10;;;;;;5017909;28;20399;-71
2022/08/03 11:06:23;;;;;;;9.23;1.55;;;29.50;98.40;;;;;;5017931;28;20046;-71
2022/08/03 11:09:09;;;;;;;8.32;1.70;;;29.50;98.40;;;;;;5017635;28;20049;-71
2022/08/03 11:11:47;;;;;;;8.52;1.67;;;29.40;98.00;;;;;;5000274;28;20129;-71
2022/08/03 11:14:18;;;;;;;6.25;1.30;;;29.30;98.50;;;;;;5017753;28;20073;-71
2022/08/03 11:16:46;;;;;;;9.48;2.25;;;29.30;98.40;;;;;;5017351;28;20469;-71
2022/08/03 11:19:21;;;;;;;5.45;1.83;;;29.30;98.60;;;;;;5017459;28;20042;-71
2022/08/03 11:21:49;;;;;;;6.57;1.92;;;29.20;98.40;;;;;;5017491;28;20056;-71
2022/08/03 11:24:38;;;;;;;7.55;1.85;;;29.20;98.70;;;;;;5017637;28;20041;-71
2022/08/03 11:27:26;;;;;;;12.98;2.25;;;29.30;99.10;;;;;;5033433;28;20050;-71
2022/08/03 11:30:06;;;;;;;13.98;1.92;;;29.50;99.10;;;;;;5035747;28;20041;-71
2022/08/03 11:32:43;;;;;;;6.93;2.25;;;29.40;98.70;;;;;;5037002;28;20053;-71
2022/08/03 11:35:12;;;;;;;8.95;1.60;;;29.50;98.90;;;;;;5037132;28;20442;-69
2022/08/03 11:38:02;;;;;;;11.98;2.38;;;29.60;98.40;;;;;;5036773;28;20119;-69
2022/08/03 11:40:48;;;;;;;10.90;2.80;;;29.60;98.40;;;;;;5036625;28;20033;-70
2022/08/03 11:43:33;;;;;;;9.95;2.38;;;29.70;98.80;;;;;;5036112;28;20077;-70
2022/08/03 11:46:16;;;;;;;15.35;2.22;;;29.90;98.80;;;;;;5017361;28;20076;-69
2022/08/03 11:48:45;;;;;;;7.03;2.33;;;30.10;98.30;;;;;;5017073;28;20042;-70
2022/08/03 11:51:23;;;;;;;8.55;2.80;;;30.20;98.30;;;;;;5016746;28;20108;-71
2022/08/03 11:54:04;;;;;;;10.35;2.10;;;30.30;98.20;;;;;;5016705;28;20446;-70
2022/08/03 11:56:43;;;;;;;7.15;2.10;;;30.50;97.80;;;;;;5016630;28;20060;-71
2022/08/03 11:59:09;;;;;;;11.88;3.38;;;30.50;97.90;;;;;;4999621;28;20398;-71
2022/08/03 12:01:36;;;;;;;11.40;2.25;;;30.70;97.70;;;;;;5016554;28;20046;-70
2022/08/03 12:04:03;;;;;;;10.77;2.42;;;30.80;96.90;;;;;;5033367;28;20079;-71
2022/08/03 12:06:29;;;;;;;11.63;2.40;;;30.90;96.60;;;;;;5036473;28;20354;-70
2022/08/03 12:08:54;;;;;;;18.10;3.15;;;31.00;96.90;;;;;;5036362;28;20034;-69
2022/08/03 12:11:20;;;;;;;9.52;2.08;;;31.10;96.60;;;;;;5023496;28;20042;-71
2022/08/03 12:13:50;;;;;;;10.75;2.83;;;31.10;96.60;;;;;;5016224;28;20085;-70
2022/08/03 12:16:20;;;;;;;15.30;2.00;;;31.20;96.20;;;;;;5016095;28;20053;-70
2022/08/03 12:18:56;;;;;;;11.05;3.00;;;31.30;96.40;;;;;;5016420;28;20073;-70
2022/08/03 12:21:23;;;;;;;23.55;2.00;;;31.30;95.60;;;;;;5016556;28;20034;-70
2022/08/03 12:23:49;;;;;;;7.30;2.05;;;31.40;96.10;;;;;;5016134;28;20123;-71
2022/08/03 12:26:14;;;;;;;10.23;2.05;;;31.50;96.30;;;;;;5015975;28;20042;-72
2022/08/03 12:28:48;;;;;;;11.70;3.75;;;31.60;96.00;;;;;;5016241;28;20042;-70
2022/08/03 12:31:13;;;;;;;11.55;2.38;;;31.60;95.30;;;;;;5016237;28;20378;-69
2022/08/03 12:33:59;;;;;;;10.25;2.00;;;31.60;95.50;;;;;;5016230;28;20046;-68
2022/08/03 12:36:25;;;;;;;12.40;2.97;;;31.60;95.40;;;;;;5016734;28;20125;-69
2022/08/03 12:39:06;;;;;;;10.82;2.20;;;31.60;95.30;;;;;;5015829;28;20069;-69
2022/08/03 12:41:37;;;;;;;10.20;1.85;;;31.60;95.20;;;;;;5015920;28;20072;-69
2022/08/03 12:44:05;;;;;;;9.90;2.20;;;31.70;94.70;;;;;;5015891;28;20060;-70
2022/08/03 12:46:39;;;;;;;7.85;2.10;;;31.70;95.30;;;;;;5016710;28;20405;-70
2022/08/03 12:49:10;;;;;;;8.40;1.92;;;31.70;95.20;;;;;;5015540;28;20042;-70
2022/08/03 12:51:41;;;;;;;16.83;2.53;;;31.70;94.80;;;;;;5015750;28;20038;-70
2022/08/03 12:54:07;;;;;;;9.63;1.80;;;31.80;95.10;;;;;;4998195;28;20057;-71
2022/08/03 12:56:34;;;;;;;11.18;2.28;;;31.90;95.10;;;;;;5015782;28;20320;-70
2022/08/03 12:59:00;;;;;;;11.02;2.30;;;31.80;94.80;;;;;;5015692;28;20073;-69
2022/08/03 13:01:27;;;;;;;13.05;2.50;;;31.90;94.80;;;;;;5024117;28;20465;-69
2022/08/03 13:03:53;;;;;;;8.63;2.30;;;32.00;94.60;;;;;;5035152;28;20107;-69